Time;durP1;ratioP1;P1;durP2;ratioP2;P2;SDS_P1;SDS_P2;PMS_P1;PMS_P2;Temp;Humidity;BMP_temperature;BMP_pressure;BME280_temperature;BME280_humidity;BME280_pressure;Samples;Min_cycle;Max_cycle;Signal;HPM_P1;HPM_P2
2022/07/28 00:01:55;;;;;;;;;;;14.10;99.90;;;;;;5135475;27;19953;-73
2022/07/28 00:04:21;;;;;;;;;;;14.10;99.90;;;;;;5135970;27;19908;-72
2022/07/28 00:06:46;;;;;;;;;;;14.10;99.90;;;;;;5135222;27;19903;-73
2022/07/28 00:09:12;;;;;;;;;;;14.20;99.90;;;;;;5135859;27;19903;-73
2022/07/28 00:11:37;;;;;;;;;;;14.20;99.90;;;;;;5136151;27;20312;-72
2022/07/28 00:14:03;;;;;;;;;;;14.20;99.90;;;;;;5135278;27;20156;-73
2022/07/28 00:16:28;;;;;;;;;;;14.20;99.90;;;;;;5135695;27;19904;-72
2022/07/28 00:18:54;;;;;;;;;;;14.20;99.90;;;;;;5135451;27;20278;-72
2022/07/28 00:21:20;;;;;;;;;;;14.20;99.90;;;;;;5135555;27;19908;-72
2022/07/28 00:23:45;;;;;;;;;;;14.30;99.90;;;;;;5134982;27;19966;-73
2022/07/28 00:26:11;;;;;;;;;;;14.30;99.90;;;;;;5135486;27;19952;-73
2022/07/28 00:28:37;;;;;;;;;;;14.30;99.90;;;;;;5135314;27;20240;-72
2022/07/28 00:31:03;;;;;;;;;;;14.20;99.90;;;;;;5134170;27;19942;-72
2022/07/28 00:33:28;;;;;;;;;;;14.20;99.90;;;;;;5135032;27;19903;-72
2022/07/28 00:35:54;;;;;;;;;;;14.20;99.90;;;;;;5134945;27;19903;-73
2022/07/28 00:38:19;;;;;;;;;;;14.20;99.90;;;;;;5135642;27;19903;-73
2022/07/28 00:43:29;;;;;;;;;;;14.10;99.90;;;;;;5135210;27;20010;-73
2022/07/28 00:45:55;;;;;;;;;;;14.10;99.90;;;;;;5134782;27;20407;-73
2022/07/28 00:48:20;;;;;;;;;;;14.10;99.90;;;;;;5135232;27;19926;-73
2022/07/28 00:50:46;;;;;;;;;;;14.10;99.90;;;;;;5134741;27;19903;-73
2022/07/28 00:53:11;;;;;;;;;;;14.10;99.90;;;;;;5134650;27;19915;-72
2022/07/28 00:55:37;;;;;;;;;;;14.10;99.90;;;;;;5134829;27;19904;-72
2022/07/28 00:58:03;;;;;;;;;;;14.10;99.90;;;;;;5134468;27;19904;-73
2022/07/28 01:00:28;;;;;;;;;;;14.10;99.90;;;;;;5134812;27;19907;-72
2022/07/28 01:02:54;;;;;;;;;;;14.10;99.90;;;;;;5134427;27;20312;-72
2022/07/28 01:05:20;;;;;;;;;;;14.10;99.90;;;;;;5134750;27;19946;-72
2022/07/28 01:08:00;;;;;;;;;;;14.00;99.90;;;;;;5135007;27;19904;-72
2022/07/28 01:10:39;;;;;;;;;;;14.00;99.90;;;;;;5134626;27;19998;-73
2022/07/28 01:13:07;;;;;;;;;;;14.00;99.90;;;;;;5134062;27;19904;-73
2022/07/28 01:15:54;;;;;;;;;;;14.00;99.90;;;;;;5134899;27;19964;-72
2022/07/28 01:18:22;;;;;;;;;;;14.00;99.90;;;;;;5134617;27;19910;-72
2022/07/28 01:21:01;;;;;;;;;;;14.00;99.90;;;;;;5134312;27;19907;-72
2022/07/28 01:23:32;;;;;;;;;;;14.00;99.90;;;;;;5135041;27;20007;-72
2022/07/28 01:26:17;;;;;;;;;;;14.00;99.90;;;;;;5134047;27;19910;-73
2022/07/28 01:29:01;;;;;;;;;;;14.00;99.90;;;;;;5134437;27;19909;-72
2022/07/28 01:31:29;;;;;;;;;;;14.00;99.90;;;;;;5134447;27;20247;-72
2022/07/28 01:33:59;;;;;;;;;;;14.00;99.90;;;;;;5133852;27;20001;-72
2022/07/28 01:36:27;;;;;;;;;;;14.00;99.90;;;;;;5134077;27;19956;-72
2022/07/28 01:38:53;;;;;;;;;;;13.90;99.90;;;;;;5133803;28;19912;-72
2022/07/28 01:41:20;;;;;;;;;;;14.00;99.90;;;;;;5136694;27;20248;-73
2022/07/28 01:43:49;;;;;;;;;;;14.00;99.90;;;;;;5141125;27;20244;-72
2022/07/28 01:46:15;;;;;;;;;;;14.00;99.90;;;;;;5140860;27;20364;-72
2022/07/28 01:48:42;;;;;;;;;;;13.90;99.90;;;;;;5140905;27;20252;-72
2022/07/28 01:51:08;;;;;;;;;;;13.90;99.90;;;;;;5140563;27;19948;-72
2022/07/28 01:53:35;;;;;;;;;;;13.80;99.90;;;;;;5141095;27;19903;-73
2022/07/28 01:56:02;;;;;;;;;;;13.80;99.90;;;;;;5140665;27;19904;-72
2022/07/28 01:58:29;;;;;;;;;;;13.80;99.90;;;;;;5141002;27;19911;-72
2022/07/28 02:00:55;;;;;;;;;;;13.80;99.90;;;;;;5140541;27;19915;-72
2022/07/28 02:03:22;;;;;;;;;;;13.80;99.90;;;;;;5140868;27;19957;-72
2022/07/28 02:05:49;;;;;;;;;;;13.80;99.90;;;;;;5140961;27;19903;-72
2022/07/28 02:08:16;;;;;;;;;;;13.80;99.90;;;;;;5140328;27;20014;-73
2022/07/28 02:10:42;;;;;;;;;;;13.80;99.90;;;;;;5140940;27;19907;-72
2022/07/28 02:13:10;;;;;;;;;;;13.80;99.90;;;;;;5140665;27;19910;-72
2022/07/28 02:15:36;;;;;;;;;;;13.80;99.90;;;;;;5140979;27;19910;-73
2022/07/28 02:18:02;;;;;;;;;;;13.90;99.90;;;;;;5140452;27;19907;-73
2022/07/28 02:20:28;;;;;;;;;;;13.90;99.90;;;;;;5140974;27;19908;-73
2022/07/28 02:22:54;;;;;;;;;;;13.90;99.90;;;;;;5140318;27;20352;-73
2022/07/28 02:25:20;;;;;;;;;;;13.80;99.90;;;;;;5141011;27;19971;-73
2022/07/28 02:27:48;;;;;;;;;;;13.80;99.90;;;;;;5140485;27;19956;-72
2022/07/28 02:30:15;;;;;;;;;;;13.80;99.90;;;;;;5140211;27;19903;-72
2022/07/28 02:32:52;;;;;;;;;;;13.80;99.90;;;;;;5140738;27;20347;-73
2022/07/28 02:35:18;;;;;;;;;;;13.80;99.90;;;;;;5140711;27;19915;-73
2022/07/28 02:37:51;;;;;;;;;;;13.80;99.90;;;;;;5140666;27;20293;-72
2022/07/28 02:40:18;;;;;;;;;;;13.80;99.90;;;;;;5140073;27;20011;-72
2022/07/28 02:42:45;;;;;;;;;;;13.70;99.90;;;;;;5140345;27;19955;-72
2022/07/28 02:45:12;;;;;;;;;;;13.70;99.90;;;;;;5140544;27;19994;-72
2022/07/28 02:47:42;;;;;;;;;;;13.70;99.90;;;;;;5140343;27;20376;-72
2022/07/28 02:50:09;;;;;;;;;;;13.60;99.90;;;;;;5140249;27;19903;-72
2022/07/28 02:52:36;;;;;;;;;;;13.60;99.90;;;;;;5139248;27;19904;-72
2022/07/28 02:55:02;;;;;;;;;;;13.50;99.90;;;;;;5136719;27;20487;-73
2022/07/28 02:57:28;;;;;;;;;;;13.50;99.90;;;;;;5137284;27;19908;-72
2022/07/28 02:59:54;;;;;;;;;;;13.50;99.90;;;;;;5137126;27;19960;-72
2022/07/28 03:02:20;;;;;;;;;;;13.50;99.90;;;;;;5137149;27;19911;-72
2022/07/28 03:04:57;;;;;;;;;;;13.50;99.90;;;;;;5137113;27;19995;-72
2022/07/28 03:07:26;;;;;;;;;;;13.50;99.90;;;;;;5137209;27;20248;-72
2022/07/28 03:09:52;;;;;;;;;;;13.40;99.90;;;;;;5137125;27;19914;-72
2022/07/28 03:12:17;;;;;;;;;;;13.40;99.90;;;;;;5136180;27;20297;-72
2022/07/28 03:14:43;;;;;;;;;;;13.40;99.90;;;;;;5136856;27;19948;-72
2022/07/28 03:17:09;;;;;;;;;;;13.40;99.90;;;;;;5136467;27;19903;-73
2022/07/28 03:19:35;;;;;;;;;;;13.40;99.90;;;;;;5136658;27;19907;-72
2022/07/28 03:22:01;;;;;;;;;;;13.40;99.90;;;;;;5135953;27;20260;-72
2022/07/28 03:24:28;;;;;;;;;;;13.40;99.90;;;;;;5136726;27;19904;-72
2022/07/28 03:27:10;;;;;;;;;;;13.50;99.90;;;;;;5136699;27;19907;-72
2022/07/28 03:29:35;;;;;;;;;;;13.60;99.90;;;;;;5136628;27;19904;-72
2022/07/28 03:32:01;;;;;;;;;;;13.60;99.90;;;;;;5135863;27;20045;-72
2022/07/28 03:34:27;;;;;;;;;;;13.60;99.90;;;;;;5136625;27;20114;-73
2022/07/28 03:37:01;;;;;;;;;;;13.60;99.90;;;;;;5136429;27;20339;-72
2022/07/28 03:39:28;;;;;;;;;;;13.60;99.90;;;;;;5136565;27;19911;-72
2022/07/28 03:41:54;;;;;;;;;;;13.60;99.90;;;;;;5136496;27;19907;-72
2022/07/28 03:44:21;;;;;;;;;;;13.60;99.90;;;;;;5135847;27;19904;-72
2022/07/28 03:46:46;;;;;;;;;;;13.60;99.90;;;;;;5136228;27;19904;-72
2022/07/28 03:49:12;;;;;;;;;;;13.60;99.90;;;;;;5135718;27;19914;-72
2022/07/28 03:51:38;;;;;;;;;;;13.70;99.90;;;;;;5136069;27;20006;-72
2022/07/28 03:54:03;;;;;;;;;;;13.70;99.90;;;;;;5136022;27;19903;-73
2022/07/28 03:56:29;;;;;;;;;;;13.60;99.90;;;;;;5136438;27;19904;-72
2022/07/28 03:58:54;;;;;;;;;;;13.60;99.90;;;;;;5135757;27;20259;-71
2022/07/28 04:01:20;;;;;;;;;;;13.70;99.90;;;;;;5135175;27;19953;-72
2022/07/28 04:03:45;;;;;;;;;;;13.70;99.90;;;;;;5135802;27;19938;-72
2022/07/28 04:06:11;;;;;;;;;;;13.70;99.90;;;;;;5134362;27;19960;-72
2022/07/28 04:08:37;;;;;;;;;;;13.70;99.90;;;;;;5135882;27;20356;-72
2022/07/28 04:11:02;;;;;;;;;;;13.70;99.90;;;;;;5135009;27;19904;-73
2022/07/28 04:13:30;;;;;;;;;;;13.70;99.90;;;;;;5135563;27;19911;-73
2022/07/28 04:15:56;;;;;;;;;;;13.70;99.90;;;;;;5135598;27;19931;-72
2022/07/28 04:18:22;;;;;;;;;;;13.80;99.90;;;;;;5135117;27;19976;-72
2022/07/28 04:20:47;;;;;;;;;;;13.70;99.90;;;;;;5135479;27;19907;-71
2022/07/28 04:23:13;;;;;;;;;;;13.70;99.90;;;;;;5135181;27;20275;-73
2022/07/28 04:25:38;;;;;;;;;;;13.70;99.90;;;;;;5135663;27;19907;-73
2022/07/28 04:28:04;;;;;;;;;;;13.60;99.90;;;;;;5135099;27;19990;-72
2022/07/28 04:30:30;;;;;;;;;;;13.50;99.90;;;;;;5135450;27;19942;-72
2022/07/28 04:32:55;;;;;;;;;;;13.50;99.90;;;;;;5135390;27;20362;-72
2022/07/28 04:35:23;;;;;;;;;;;13.50;99.90;;;;;;5135078;27;20006;-72
2022/07/28 04:37:48;;;;;;;;;;;13.60;99.90;;;;;;5135361;27;19972;-72
2022/07/28 04:40:15;;;;;;;;;;;13.60;99.90;;;;;;5134785;27;20355;-72
2022/07/28 04:42:40;;;;;;;;;;;13.60;99.90;;;;;;5135135;27;19907;-72
2022/07/28 04:45:07;;;;;;;;;;;13.60;99.90;;;;;;5134403;27;19956;-72
2022/07/28 04:47:32;;;;;;;;;;;13.60;99.90;;;;;;5135027;27;19907;-72
2022/07/28 04:49:58;;;;;;;;;;;13.60;99.90;;;;;;5134973;27;19911;-72
2022/07/28 04:52:25;;;;;;;;;;;13.60;99.90;;;;;;5134595;27;19910;-72
2022/07/28 04:54:51;;;;;;;;;;;13.60;99.90;;;;;;5134831;27;19910;-72
2022/07/28 04:57:17;;;;;;;;;;;13.60;99.90;;;;;;5134463;27;19910;-73
2022/07/28 04:59:43;;;;;;;;;;;13.60;99.90;;;;;;5134904;27;19908;-72
2022/07/28 05:02:08;;;;;;;;;;;13.60;99.90;;;;;;5134345;27;19995;-73
2022/07/28 05:04:34;;;;;;;;;;;13.60;99.90;;;;;;5134402;27;20252;-72
2022/07/28 05:06:59;;;;;;;;;;;13.60;99.90;;;;;;5135042;27;19904;-72
2022/07/28 05:09:25;;;;;;;;;;;13.60;99.90;;;;;;5134239;27;19904;-72
2022/07/28 05:11:51;;;;;;;;;;;13.60;99.90;;;;;;5134644;27;20389;-72
2022/07/28 05:14:16;;;;;;;;;;;13.50;99.90;;;;;;5134335;27;19954;-72
2022/07/28 05:16:43;;;;;;;;;;;13.60;99.90;;;;;;5134234;27;19907;-72
2022/07/28 05:19:09;;;;;;;;;;;13.60;99.90;;;;;;5134106;27;19952;-72
2022/07/28 05:21:34;;;;;;;;;;;13.60;99.90;;;;;;5134557;27;19953;-72
2022/07/28 05:24:00;;;;;;;;;;;13.60;99.90;;;;;;5134612;27;19908;-72
2022/07/28 05:26:27;;;;;;;;;;;13.50;99.90;;;;;;5115560;27;19903;-72
2022/07/28 05:28:53;;;;;;;;;;;13.60;99.90;;;;;;5134359;27;19910;-72
2022/07/28 05:31:18;;;;;;;;;;;13.60;99.90;;;;;;5133918;27;19904;-72
2022/07/28 05:33:44;;;;;;;;;;;13.60;99.90;;;;;;5134213;27;20005;-72
2022/07/28 05:36:10;;;;;;;;;;;13.60;99.90;;;;;;5133855;27;20355;-73
2022/07/28 05:38:35;;;;;;;;;;;13.60;99.90;;;;;;5134315;27;19910;-72
2022/07/28 05:41:01;;;;;;;;;;;13.70;99.90;;;;;;5134206;28;20480;-72
2022/07/28 05:43:27;;;;;;;;;;;13.70;99.90;;;;;;5134178;28;19908;-72
2022/07/28 05:45:52;;;;;;;;;;;13.80;99.90;;;;;;5134185;28;20244;-72
2022/07/28 05:48:18;;;;;;;;;;;13.80;99.90;;;;;;5133778;28;19903;-73
2022/07/28 05:50:44;;;;;;;;;;;13.80;99.90;;;;;;5134094;28;20322;-72
2022/07/28 05:53:10;;;;;;;;;;;13.90;99.90;;;;;;5133664;28;19903;-73
2022/07/28 05:55:35;;;;;;;;;;;14.00;99.90;;;;;;5134115;28;19926;-73
2022/07/28 05:58:01;;;;;;;;;;;14.00;99.90;;;;;;5134509;28;19907;-72
2022/07/28 06:00:27;;;;;;;;;;;14.00;99.90;;;;;;5133620;28;19907;-72
2022/07/28 06:02:52;;;;;;;;;;;14.10;99.90;;;;;;5134237;28;19939;-72
2022/07/28 06:05:19;;;;;;;;;;;14.10;99.90;;;;;;5133491;28;19948;-72
2022/07/28 06:07:45;;;;;;;;;;;14.10;99.90;;;;;;5133998;28;19947;-73
2022/07/28 06:10:19;;;;;;;;;;;14.20;99.90;;;;;;5133643;28;19904;-73
2022/07/28 06:12:46;;;;;;;;;;;14.20;99.90;;;;;;5134105;28;19903;-73
2022/07/28 06:15:15;;;;;;;;;;;14.30;99.90;;;;;;5133780;28;20367;-73
2022/07/28 06:17:41;;;;;;;;;;;14.40;99.90;;;;;;5133978;28;19903;-73
2022/07/28 06:20:07;;;;;;;;;;;14.40;99.90;;;;;;5133490;28;19975;-73
2022/07/28 06:22:43;;;;;;;;;;;14.40;99.90;;;;;;5133655;28;19914;-74
2022/07/28 06:25:21;;;;;;;;;;;14.50;99.90;;;;;;5133435;28;20006;-73
2022/07/28 06:27:47;;;;;;;;;;;14.50;99.90;;;;;;5133966;27;19903;-73
2022/07/28 06:30:12;;;;;;;;;;;14.60;99.90;;;;;;5137281;27;19907;-73
2022/07/28 06:32:38;;;;;;;;;;;14.70;99.90;;;;;;5137639;27;19910;-73
2022/07/28 06:35:04;;;;;;;;;;;14.70;99.90;;;;;;5137345;27;19998;-73
2022/07/28 06:37:29;;;;;;;;;;;14.90;99.90;;;;;;5137172;27;19904;-73
2022/07/28 06:39:55;;;;;;;;;;;15.00;99.90;;;;;;5137545;27;20350;-73
2022/07/28 06:42:20;;;;;;;;;;;15.10;99.90;;;;;;5137169;27;19952;-73
2022/07/28 06:44:46;;;;;;;;;;;15.20;99.90;;;;;;5137316;27;19904;-73
2022/07/28 06:47:12;;;;;;;;;;;15.20;99.90;;;;;;5136814;27;19936;-73
2022/07/28 06:49:37;;;;;;;;;;;15.20;99.90;;;;;;5137320;27;19904;-73
2022/07/28 06:52:03;;;;;;;;;;;15.30;99.90;;;;;;5137381;27;20010;-73
2022/07/28 06:54:28;;;;;;;;;;;15.40;99.90;;;;;;5136789;27;19907;-73
2022/07/28 06:56:54;;;;;;;;;;;15.40;99.90;;;;;;5137569;27;20362;-73
2022/07/28 06:59:19;;;;;;;;;;;15.40;99.90;;;;;;5136703;27;19908;-73
2022/07/28 07:01:45;;;;;;;;;;;15.40;99.90;;;;;;5136829;27;19907;-73
2022/07/28 07:04:10;;;;;;;;;;;15.40;99.90;;;;;;5136486;27;19911;-73
2022/07/28 07:06:36;;;;;;;;;;;15.40;99.90;;;;;;5136983;27;19911;-72
2022/07/28 07:09:02;;;;;;;;;;;15.40;99.90;;;;;;5136619;27;19908;-73
2022/07/28 07:11:27;;;;;;;;;;;15.50;99.90;;;;;;5136881;27;19946;-73
2022/07/28 07:13:53;;;;;;;;;;;15.50;99.90;;;;;;5136934;27;19907;-73
2022/07/28 07:16:18;;;;;;;;;;;15.60;99.90;;;;;;5136381;27;19926;-73
2022/07/28 07:18:44;;;;;;;;;;;15.70;99.90;;;;;;5136838;27;19963;-73
2022/07/28 07:21:10;;;;;;;;;;;15.80;99.90;;;;;;5136374;27;19919;-74
2022/07/28 07:23:35;;;;;;;;;;;16.00;99.90;;;;;;5136672;27;19910;-72
2022/07/28 07:26:01;;;;;;;;;;;16.10;99.90;;;;;;5136473;27;19908;-73
2022/07/28 07:28:27;;;;;;;;;;;16.20;99.90;;;;;;5135925;27;19950;-73
2022/07/28 07:30:52;;;;;;;;;;;16.30;99.90;;;;;;5136614;27;19943;-72
2022/07/28 07:33:18;;;;;;;;;;;16.30;99.90;;;;;;5136143;27;19949;-73
2022/07/28 07:35:44;;;;;;;;;;;16.30;99.90;;;;;;5136102;27;19919;-72
2022/07/28 07:38:10;;;;;;;;;;;16.10;99.90;;;;;;5136245;27;19956;-73
2022/07/28 07:40:35;;;;;;;;;;;16.10;99.90;;;;;;5135595;27;20344;-72
2022/07/28 07:43:01;;;;;;;;;;;16.10;99.90;;;;;;5136496;27;19956;-72
2022/07/28 07:45:26;;;;;;;;;;;16.00;99.90;;;;;;5135936;27;20006;-72
2022/07/28 07:47:52;;;;;;;;;;;16.10;99.90;;;;;;5136381;27;19904;-72
2022/07/28 07:50:17;;;;;;;;;;;16.10;99.90;;;;;;5135783;27;19947;-73
2022/07/28 07:52:43;;;;;;;;;;;16.10;99.90;;;;;;5136083;27;19910;-72
2022/07/28 07:55:09;;;;;;;;;;;16.00;99.90;;;;;;5136240;27;19907;-72
2022/07/28 07:57:34;;;;;;;;;;;16.00;99.90;;;;;;5135655;27;19903;-72
2022/07/28 08:00:00;;;;;;;;;;;16.10;99.90;;;;;;5136001;27;19914;-73
2022/07/28 08:02:25;;;;;;;;;;;16.10;99.90;;;;;;5135768;27;20252;-73
2022/07/28 08:04:51;;;;;;;;;;;16.10;99.90;;;;;;5135850;27;19907;-72
2022/07/28 08:07:16;;;;;;;;;;;16.10;99.90;;;;;;5135186;27;19941;-73
2022/07/28 08:09:42;;;;;;;;;;;16.20;99.90;;;;;;5135673;27;19903;-72
2022/07/28 08:12:08;;;;;;;;;;;16.30;99.90;;;;;;5135494;27;19909;-72
2022/07/28 08:14:33;;;;;;;;;;;16.30;99.90;;;;;;5135342;27;19907;-72
2022/07/28 08:16:59;;;;;;;;;;;16.30;99.90;;;;;;5135751;27;20256;-72
2022/07/28 08:19:25;;;;;;;;;;;16.30;99.90;;;;;;5135159;27;19914;-73
2022/07/28 08:21:51;;;;;;;;;;;16.40;99.90;;;;;;5135242;27;20421;-72
2022/07/28 08:24:16;;;;;;;;;;;16.50;99.90;;;;;;5135091;27;19907;-72
2022/07/28 08:26:42;;;;;;;;;;;16.50;99.90;;;;;;5135140;27;19907;-73
2022/07/28 08:29:08;;;;;;;;;;;16.70;99.90;;;;;;5135471;27;19910;-72
2022/07/28 08:31:33;;;;;;;;;;;16.80;99.90;;;;;;5134969;27;19903;-72
2022/07/28 08:33:59;;;;;;;;;;;16.80;99.90;;;;;;5135006;27;19921;-72
2022/07/28 08:36:25;;;;;;;;;;;16.90;99.90;;;;;;5134820;27;19953;-73
2022/07/28 08:38:50;;;;;;;;;;;16.80;99.90;;;;;;5135223;27;19904;-73
2022/07/28 08:41:19;;;;;;;;;;;16.80;99.90;;;;;;5134669;27;19907;-73
2022/07/28 08:43:46;;;;;;;;;;;16.90;99.90;;;;;;5135040;27;19907;-72
2022/07/28 08:46:12;;;;;;;;;;;16.80;99.90;;;;;;5135067;27;19907;-73
2022/07/28 08:48:37;;;;;;;;;;;16.80;99.90;;;;;;5134509;27;20327;-73
2022/07/28 08:51:04;;;;;;;;;;;16.80;99.90;;;;;;5134522;27;20010;-73
2022/07/28 08:53:30;;;;;;;;;;;16.80;99.90;;;;;;5134451;27;20002;-73
2022/07/28 08:56:02;;;;;;;;;;;16.90;99.90;;;;;;5134769;27;19947;-73
2022/07/28 08:58:29;;;;;;;;;;;16.90;99.90;;;;;;5134134;27;20399;-73
2022/07/28 09:00:54;;;;;;;;;;;17.00;99.90;;;;;;5134811;27;19968;-73
2022/07/28 09:03:20;;;;;;;;;;;17.10;99.90;;;;;;5134358;27;20344;-74
2022/07/28 09:05:46;;;;;;;;;;;17.30;99.90;;;;;;5134709;27;20437;-73
2022/07/28 09:08:11;;;;;;;;;;;17.60;99.90;;;;;;5134380;27;19994;-73
2022/07/28 09:10:37;;;;;;;;;;;17.70;99.90;;;;;;5134050;27;19904;-73
2022/07/28 09:13:03;;;;;;;;;;;17.70;99.90;;;;;;5135076;27;19907;-73
2022/07/28 09:15:28;;;;;;;;;;;17.50;99.90;;;;;;5134116;27;20318;-73
2022/07/28 09:17:54;;;;;;;;;;;17.50;99.90;;;;;;5134419;27;19910;-72
2022/07/28 09:20:20;;;;;;;;;;;17.60;99.90;;;;;;5133786;27;20393;-73
2022/07/28 09:22:56;;;;;;;;;;;17.60;99.90;;;;;;5134236;27;19907;-72
2022/07/28 09:25:21;;;;;;;;;;;17.40;99.90;;;;;;5133993;27;19965;-73
2022/07/28 09:27:47;;;;;;;;;;;17.50;99.90;;;;;;5134503;27;20352;-73
2022/07/28 09:30:13;;;;;;;;;;;17.70;99.90;;;;;;5134354;27;19907;-73
2022/07/28 09:32:38;;;;;;;;;;;17.90;99.90;;;;;;5133817;27;19929;-72
2022/07/28 09:35:16;;;;;;;;;;;18.20;99.90;;;;;;5133768;27;20355;-72
2022/07/28 09:37:42;;;;;;;;;;;18.20;99.90;;;;;;5133790;27;19957;-72
2022/07/28 09:40:12;;;;;;;;;;;18.00;99.90;;;;;;5134295;27;20256;-73
2022/07/28 09:42:44;;;;;;;;;;;18.00;99.90;;;;;;5133955;28;19908;-73
2022/07/28 09:45:10;;;;;;;;;;;18.00;99.90;;;;;;5134195;28;19904;-73
2022/07/28 09:47:39;;;;;;;;;;;17.80;99.90;;;;;;5133666;28;19910;-72
2022/07/28 09:50:04;;;;;;;;;;;17.80;99.90;;;;;;5134278;28;19903;-73
2022/07/28 09:52:31;;;;;;;;;;;17.90;99.90;;;;;;5134011;28;20366;-73
2022/07/28 09:55:00;;;;;;;;;;;18.00;99.90;;;;;;5133973;28;20412;-72
2022/07/28 09:57:27;;;;;;;;;;;17.80;99.90;;;;;;5133620;28;19936;-73
2022/07/28 09:59:53;;;;;;;;;;;17.90;99.90;;;;;;5134244;28;19917;-73
2022/07/28 10:02:25;;;;;;;;;;;17.90;99.90;;;;;;5135374;27;19960;-73
2022/07/28 10:04:52;;;;;;;;;;;18.00;99.90;;;;;;5137864;27;20460;-73
2022/07/28 10:07:18;;;;;;;;;;;18.20;99.90;;;;;;5137841;27;20336;-73
2022/07/28 10:09:59;;;;;;;;;;;18.30;99.90;;;;;;5137695;27;19910;-73
2022/07/28 10:12:26;;;;;;;;;;;18.20;99.90;;;;;;5137660;27;19904;-73
2022/07/28 10:14:53;;;;;;;;;;;18.30;99.90;;;;;;5138071;27;19904;-73
2022/07/28 10:17:22;;;;;;;;;;;18.50;99.90;;;;;;5138349;27;19903;-73
2022/07/28 10:19:48;;;;;;;;;;;18.80;99.90;;;;;;5137835;27;19914;-73
2022/07/28 10:22:16;;;;;;;;;;;19.00;99.90;;;;;;5137538;27;19908;-74
2022/07/28 10:24:43;;;;;;;;;;;19.00;99.90;;;;;;5137509;27;19911;-74
2022/07/28 10:27:08;;;;;;;;;;;19.10;99.90;;;;;;5137812;27;19903;-74
2022/07/28 10:29:34;;;;;;;;;;;19.00;99.90;;;;;;5137322;27;20007;-75
2022/07/28 10:32:03;;;;;;;;;;;19.20;99.90;;;;;;5137660;27;19904;-73
2022/07/28 10:34:43;;;;;;;;;;;19.40;99.90;;;;;;5137028;27;19915;-73
2022/07/28 10:37:16;;;;;;;;;;;19.30;99.90;;;;;;5137613;27;19954;-74
2022/07/28 10:39:45;;;;;;;;;;;19.30;99.90;;;;;;5137059;27;19916;-74
2022/07/28 10:42:11;;;;;;;;;;;19.40;99.90;;;;;;5137672;27;19960;-73
2022/07/28 10:44:36;;;;;;;;;;;19.50;99.90;;;;;;5137012;27;19903;-74
2022/07/28 10:47:05;;;;;;;;;;;19.40;99.90;;;;;;5137434;27;19946;-74
2022/07/28 10:49:31;;;;;;;;;;;19.40;99.90;;;;;;5136967;27;19904;-75
2022/07/28 10:51:56;;;;;;;;;;;19.60;99.90;;;;;;5137447;27;19910;-74
2022/07/28 10:54:26;;;;;;;;;;;19.80;99.90;;;;;;5137651;27;19907;-74
2022/07/28 10:56:54;;;;;;;;;;;19.90;99.90;;;;;;5137178;27;19998;-74
2022/07/28 10:59:31;;;;;;;;;;;19.60;99.90;;;;;;5137372;27;19914;-73
2022/07/28 11:01:57;;;;;;;;;;;19.30;99.90;;;;;;5137372;27;19960;-73
2022/07/28 11:04:41;;;;;;;;;;;19.20;99.90;;;;;;5137451;27;19908;-74
2022/07/28 11:07:10;;;;;;;;;;;19.00;99.90;;;;;;5137287;27;20002;-74
2022/07/28 11:09:36;;;;;;;;;;;19.10;99.90;;;;;;5136730;27;19903;-74
2022/07/28 11:12:01;;;;;;;;;;;19.20;99.90;;;;;;5137325;27;20309;-73
2022/07/28 11:14:32;;;;;;;;;;;19.20;99.90;;;;;;5135858;27;20259;-74
2022/07/28 11:17:04;;;;;;;;;;;19.40;99.90;;;;;;5137019;27;19903;-72
2022/07/28 11:19:30;;;;;;;;;;;19.50;99.90;;;;;;5136611;27;20002;-74
2022/07/28 11:22:20;;;;;;;;;;;19.40;99.90;;;;;;5137041;27;19907;-74
2022/07/28 11:25:01;;;;;;;;;;;19.50;99.90;;;;;;5136467;27;19903;-74
2022/07/28 11:27:55;;;;;;;;;;;19.40;99.90;;;;;;5136492;27;19934;-73
2022/07/28 11:30:24;;;;;;;;;;;19.50;99.90;;;;;;5113970;27;20415;-73
2022/07/28 11:32:49;;;;;;;;;;;19.50;99.90;;;;;;5136083;27;20003;-73
2022/07/28 11:35:22;;;;;;;;;;;19.40;99.90;;;;;;5136037;27;20295;-73
2022/07/28 11:38:00;;;;;;;;;;;19.50;99.90;;;;;;5135901;27;20026;-73
2022/07/28 11:40:29;;;;;;;;;;;19.50;99.90;;;;;;5136220;27;20015;-73
2022/07/28 11:43:14;;;;;;;;;;;19.60;99.90;;;;;;5136471;27;19907;-73
2022/07/28 11:45:40;;;;;;;;;;;19.70;99.90;;;;;;5135493;27;20352;-73
2022/07/28 11:48:13;;;;;;;;;;;19.60;99.90;;;;;;5136110;27;19904;-74
2022/07/28 11:50:39;;;;;;;;;;;19.70;99.90;;;;;;5117565;27;19961;-74
2022/07/28 11:53:05;;;;;;;;;;;19.80;99.90;;;;;;5136215;27;19904;-74
2022/07/28 11:55:32;;;;;;;;;;;19.90;99.90;;;;;;5135604;27;19908;-73
2022/07/28 11:58:01;;;;;;;;;;;20.00;99.90;;;;;;5136066;27;19904;-74
2022/07/28 12:00:27;;;;;;;;;;;20.00;99.90;;;;;;5134496;27;19908;-74
2022/07/28 12:02:53;;;;;;;;;;;20.10;99.90;;;;;;5136006;27;19907;-74
2022/07/28 12:05:20;;;;;;;;;;;20.10;99.90;;;;;;5135995;27;20366;-73
2022/07/28 12:07:51;;;;;;;;;;;20.30;99.90;;;;;;5135362;27;19903;-73
2022/07/28 12:10:25;;;;;;;;;;;20.30;99.90;;;;;;5135541;27;20248;-74
2022/07/28 12:12:51;;;;;;;;;;;20.10;99.90;;;;;;5135283;27;19957;-75
2022/07/28 12:15:17;;;;;;;;;;;20.20;99.90;;;;;;5135542;27;20268;-74
2022/07/28 12:17:43;;;;;;;;;;;20.00;99.90;;;;;;5135370;27;19957;-74
2022/07/28 12:20:10;;;;;;;;;;;19.80;99.90;;;;;;5135411;27;20328;-74
2022/07/28 12:22:36;;;;;;;;;;;19.60;99.90;;;;;;5135087;27;19926;-72
2022/07/28 12:25:02;;;;;;;;;;;19.50;99.90;;;;;;5135350;27;19908;-74
2022/07/28 12:27:27;;;;;;;;;;;19.40;99.90;;;;;;5134871;27;19926;-73
2022/07/28 12:30:00;;;;;;;;;;;19.30;99.90;;;;;;5134859;27;19903;-74
2022/07/28 12:32:34;;;;;;;;;;;19.20;99.90;;;;;;5135295;27;20289;-74
2022/07/28 12:35:00;;;;;;;;;;;18.90;99.90;;;;;;5135301;27;19915;-74
2022/07/28 12:37:26;;;;;;;;;;;18.70;99.90;;;;;;5135235;27;19960;-74
2022/07/28 12:39:52;;;;;;;;;;;18.80;99.90;;;;;;5134642;27;20124;-74
2022/07/28 12:42:18;;;;;;;;;;;18.80;99.90;;;;;;5135177;27;20272;-73
2022/07/28 12:44:50;;;;;;;;;;;18.80;99.90;;;;;;5134583;27;19954;-73
2022/07/28 12:47:23;;;;;;;;;;;18.80;99.90;;;;;;5135191;27;19910;-74
2022/07/28 12:50:05;;;;;;;;;;;18.90;99.90;;;;;;5134637;27;20344;-74
2022/07/28 12:52:31;;;;;;;;;;;18.80;99.90;;;;;;5134331;27;20015;-74
2022/07/28 12:54:56;;;;;;;;;;;18.70;99.90;;;;;;5134998;27;20021;-74
2022/07/28 12:57:38;;;;;;;;;;;18.80;99.90;;;;;;5134623;27;19903;-73
2022/07/28 13:00:06;;;;;;;;;;;18.80;99.90;;;;;;5134693;27;19931;-74
2022/07/28 13:02:35;;;;;;;;;;;18.80;99.90;;;;;;5134309;27;20259;-74
2022/07/28 13:05:01;;;;;;;;;;;18.80;99.90;;;;;;5134678;27;19930;-73
2022/07/28 13:07:29;;;;;;;;;;;18.90;99.90;;;;;;5134572;27;20359;-74
2022/07/28 13:10:02;;;;;;;;;;;19.10;99.90;;;;;;5134126;27;19903;-74
2022/07/28 13:12:29;;;;;;;;;;;19.20;99.90;;;;;;5134525;27;20381;-74
2022/07/28 13:14:56;;;;;;;;;;;19.20;99.90;;;;;;5134104;27;19915;-74
2022/07/28 13:17:29;;;;;;;;;;;19.40;99.90;;;;;;5134574;27;19908;-74
2022/07/28 13:20:05;;;;;;;;;;;19.30;99.90;;;;;;5133898;27;19915;-74
2022/07/28 13:22:32;;;;;;;;;;;19.40;99.90;;;;;;5134386;27;19907;-74
2022/07/28 13:24:58;;;;;;;;;;;19.40;99.90;;;;;;5134464;27;19911;-74
2022/07/28 13:27:24;;;;;;;;;;;19.50;99.90;;;;;;5134348;27;19903;-74
2022/07/28 13:29:50;;;;;;;;;;;19.60;99.90;;;;;;5133551;27;20271;-74
2022/07/28 13:32:15;;;;;;;;;;;19.60;99.90;;;;;;5134473;27;19904;-74
2022/07/28 13:34:41;;;;;;;;;;;19.70;99.90;;;;;;5133722;27;19916;-74
2022/07/28 13:37:07;;;;;;;;;;;19.80;99.90;;;;;;5134205;27;19928;-74
2022/07/28 13:39:33;;;;;;;;;;;19.80;99.90;;;;;;5134361;27;19946;-74
2022/07/28 13:41:58;;;;;;;;;;;19.80;99.90;;;;;;5134379;27;19914;-73
2022/07/28 13:44:25;;;;;;;;;;;19.90;99.90;;;;;;5134226;28;20351;-74
2022/07/28 13:46:51;;;;;;;;;;;20.00;99.90;;;;;;5133703;28;19903;-74
2022/07/28 13:49:16;;;;;;;;;;;20.10;99.90;;;;;;5134077;28;20388;-73
2022/07/28 13:51:42;;;;;;;;;;;20.00;99.90;;;;;;5133727;28;20360;-73
2022/07/28 13:54:07;;;;;;;;;;;20.10;99.90;;;;;;5134165;28;19904;-73
2022/07/28 13:56:33;;;;;;;;;;;20.10;99.90;;;;;;5133757;28;19910;-74
2022/07/28 13:58:59;;;;;;;;;;;20.10;99.90;;;;;;5133606;28;19911;-74
2022/07/28 14:01:24;;;;;;;;;;;20.00;99.90;;;;;;5134043;28;19918;-74
2022/07/28 14:03:50;;;;;;;;;;;20.00;99.90;;;;;;5133648;28;19903;-74
2022/07/28 14:06:16;;;;;;;;;;;20.10;99.90;;;;;;5133960;28;19998;-74
2022/07/28 14:08:42;;;;;;;;;;;20.20;99.90;;;;;;5133512;28;20340;-73
2022/07/28 14:11:08;;;;;;;;;;;20.20;99.90;;;;;;5133931;28;19903;-74
2022/07/28 14:13:35;;;;;;;;;;;20.20;99.90;;;;;;5133951;28;19910;-74
2022/07/28 14:16:01;;;;;;;;;;;20.20;99.90;;;;;;5134003;28;19939;-74
2022/07/28 14:18:27;;;;;;;;;;;20.20;99.90;;;;;;5133905;28;19903;-74
2022/07/28 14:20:53;;;;;;;;;;;20.20;99.90;;;;;;5133324;28;19914;-74